createdAt,value
2023-05-24T00:01:26.259Z,85.26
2023-05-24T00:02:58.544Z,85.37
2023-05-24T00:04:30.859Z,85.75
2023-05-24T00:06:03.098Z,85.69
2023-05-24T00:07:35.255Z,85.97
2023-05-24T00:09:07.850Z,85.98
2023-05-24T00:10:40.020Z,85.76
2023-05-24T00:12:12.316Z,85.59
2023-05-24T00:13:44.537Z,85.32
2023-05-24T00:15:16.590Z,85.59
2023-05-24T00:16:49.892Z,85.70
2023-05-24T00:18:22.011Z,85.47
2023-05-24T00:19:54.308Z,85.46
2023-05-24T00:21:26.550Z,85.35
2023-05-24T00:22:58.806Z,85.38
2023-05-24T00:24:30.988Z,85.69
2023-05-24T00:26:04.302Z,85.68
2023-05-24T00:27:37.845Z,85.84
2023-05-24T00:29:10.068Z,85.64
2023-05-24T00:30:42.484Z,85.71
2023-05-24T00:32:15.010Z,85.82
2023-05-24T00:33:47.291Z,85.77
2023-05-24T00:35:19.542Z,85.85
2023-05-24T00:36:51.924Z,85.81
2023-05-24T00:38:27.669Z,86.01
2023-05-24T00:40:00.049Z,85.94
2023-05-24T00:41:32.296Z,86.21
2023-05-24T00:43:04.471Z,85.97
2023-05-24T00:44:36.641Z,85.86
2023-05-24T00:47:48.540Z,86.29
2023-05-24T00:49:21.002Z,86.60
2023-05-24T00:50:53.169Z,86.77
2023-05-24T00:52:25.473Z,86.76
2023-05-24T00:53:57.702Z,86.71
2023-05-24T00:55:30.562Z,86.68
2023-05-24T00:57:02.689Z,86.49
2023-05-24T00:58:34.774Z,86.62
2023-05-24T01:00:08.549Z,86.80
2023-05-24T01:01:42.249Z,86.44
2023-05-24T01:03:14.959Z,86.72
2023-05-24T01:04:49.348Z,86.62
2023-05-24T01:06:22.002Z,86.71
2023-05-24T01:08:12.165Z,87.07
2023-05-24T01:09:49.967Z,87.02
2023-05-24T01:11:46.842Z,86.72
2023-05-24T01:13:28.701Z,86.76
2023-05-24T01:15:56.200Z,86.94
2023-05-24T01:17:46.777Z,87.09
2023-05-24T01:20:07.279Z,87.03
2023-05-24T01:22:02.322Z,86.44
2023-05-24T01:23:52.670Z,86.16
2023-05-24T01:25:37.701Z,85.81
2023-05-24T01:27:12.883Z,85.60
2023-05-24T01:28:45.785Z,85.78
2023-05-24T01:30:21.401Z,85.98
2023-05-24T01:31:54.040Z,85.65
2023-05-24T01:33:26.397Z,85.76
2023-05-24T01:34:58.508Z,85.97
2023-05-24T01:36:30.646Z,85.86
2023-05-24T01:38:02.778Z,85.99
2023-05-24T01:39:34.983Z,86.23
2023-05-24T01:41:24.023Z,85.94
2023-05-24T01:43:19.322Z,85.88
2023-05-24T01:44:56.628Z,86.35
2023-05-24T01:46:39.104Z,86.16
2023-05-24T01:48:20.195Z,86.36
2023-05-24T01:49:55.479Z,86.36
2023-05-24T01:51:33.966Z,86.04
2023-05-24T01:53:10.292Z,85.77
2023-05-24T01:54:46.292Z,85.69
2023-05-24T01:56:20.828Z,85.56
2023-05-24T01:57:54.970Z,85.61
2023-05-24T01:59:29.374Z,85.75
2023-05-24T02:01:02.569Z,85.94
2023-05-24T02:02:34.978Z,85.96
2023-05-24T02:04:07.853Z,85.88
2023-05-24T02:05:39.917Z,86.24
2023-05-24T02:07:12.111Z,86.08
2023-05-24T02:08:44.236Z,86.35
2023-05-24T02:10:16.390Z,86.31
2023-05-24T02:11:48.440Z,85.95
2023-05-24T02:13:20.737Z,86.25
2023-05-24T02:14:52.810Z,86.31
2023-05-24T02:16:27.061Z,86.07
2023-05-24T02:18:01.622Z,86.03
2023-05-24T02:19:35.380Z,86.10
2023-05-24T02:21:07.687Z,86.24
2023-05-24T02:22:40.125Z,86.16
2023-05-24T02:24:12.977Z,86.16
2023-05-24T02:25:45.306Z,86.16
2023-05-24T02:27:17.528Z,86.06
2023-05-24T02:28:49.840Z,86.14
2023-05-24T02:30:21.965Z,86.47
2023-05-24T02:31:56.838Z,86.46
2023-05-24T02:33:30.276Z,86.58
2023-05-24T02:35:05.288Z,85.88
2023-05-24T02:36:37.900Z,85.64
2023-05-24T02:38:10.399Z,85.79
2023-05-24T02:39:42.906Z,86.18
2023-05-24T02:41:18.516Z,86.05
2023-05-24T02:42:50.875Z,86.12
2023-05-24T02:44:22.941Z,86.32
2023-05-24T02:45:55.221Z,86.48
2023-05-24T02:47:27.577Z,86.12
2023-05-24T02:49:00.128Z,86.21
2023-05-24T02:50:32.468Z,86.16
2023-05-24T02:52:04.969Z,86.34
2023-05-24T02:53:37.169Z,86.06
2023-05-24T02:55:10.118Z,86.04
2023-05-24T02:56:42.588Z,86.03
2023-05-24T02:58:14.789Z,86.01
2023-05-24T02:59:47.017Z,86.35
2023-05-24T03:01:20.208Z,86.47
2023-05-24T03:02:55.875Z,86.38
2023-05-24T03:04:28.093Z,86.50
2023-05-24T03:06:00.266Z,86.82
2023-05-24T03:07:32.440Z,86.96
2023-05-24T03:09:04.674Z,87.26
2023-05-24T03:10:36.931Z,87.21
2023-05-24T03:12:09.323Z,87.29
2023-05-24T03:13:41.579Z,87.58
2023-05-24T03:15:13.797Z,87.58
2023-05-24T03:16:46.528Z,87.71
2023-05-24T03:18:18.690Z,87.84
2023-05-24T03:19:51.498Z,88.03
2023-05-24T03:21:23.987Z,87.89
2023-05-24T03:22:56.561Z,87.75
2023-05-24T03:24:28.743Z,87.65
2023-05-24T03:26:01.013Z,87.65
2023-05-24T03:27:33.173Z,87.83
2023-05-24T03:29:05.379Z,87.89
2023-05-24T03:30:37.501Z,87.81
2023-05-24T03:32:09.716Z,88.04
2023-05-24T03:33:42.025Z,87.88
2023-05-24T03:35:14.425Z,88.13
2023-05-24T03:36:46.692Z,88.16
2023-05-24T03:38:18.875Z,88.20
2023-05-24T03:41:23.104Z,88.34
2023-05-24T03:42:55.340Z,88.16
2023-05-24T03:44:27.572Z,88.24
2023-05-24T03:45:59.925Z,88.42
2023-05-24T03:47:32.204Z,88.49
2023-05-24T03:49:04.535Z,88.57
2023-05-24T03:50:36.859Z,88.56
2023-05-24T03:52:08.994Z,88.88
2023-05-24T03:53:41.227Z,88.86
2023-05-24T03:55:15.436Z,88.63
2023-05-24T03:56:47.700Z,88.73
2023-05-24T03:58:19.847Z,88.87
2023-05-24T03:59:52.063Z,88.97
2023-05-24T04:01:33.171Z,89.00
2023-05-24T04:03:07.327Z,88.91
2023-05-24T04:04:39.756Z,89.13
2023-05-24T04:06:12.607Z,89.35
2023-05-24T04:07:46.773Z,89.59
2023-05-24T04:09:19.057Z,89.82
2023-05-24T04:10:51.198Z,89.93
2023-05-24T04:12:23.405Z,90.22
2023-05-24T04:13:56.526Z,90.29
2023-05-24T04:15:28.769Z,90.56
2023-05-24T04:17:02.684Z,90.54
2023-05-24T04:18:37.942Z,90.70
2023-05-24T04:20:11.714Z,90.73
2023-05-24T04:21:43.931Z,90.93
2023-05-24T04:23:16.108Z,91.09
2023-05-24T04:24:48.357Z,91.43
2023-05-24T04:26:21.672Z,91.63
2023-05-24T04:27:54.016Z,91.76
2023-05-24T04:29:28.223Z,91.92
2023-05-24T04:31:00.592Z,92.23
2023-05-24T04:32:32.852Z,92.22
2023-05-24T04:34:07.996Z,92.21
2023-05-24T04:35:41.210Z,92.28
2023-05-24T04:37:17.692Z,92.34
2023-05-24T04:38:50.879Z,92.39
2023-05-24T04:40:23.358Z,92.41
2023-05-24T04:41:56.872Z,92.26
2023-05-24T04:43:29.269Z,92.54
2023-05-24T04:45:01.618Z,92.37
2023-05-24T04:46:36.543Z,92.36
2023-05-24T04:48:08.837Z,92.72
2023-05-24T04:49:41.047Z,92.47
2023-05-24T04:51:13.365Z,92.47
2023-05-24T04:52:45.601Z,92.44
2023-05-24T04:54:18.649Z,92.49
2023-05-24T04:55:51.542Z,92.48
2023-05-24T04:57:26.822Z,92.17
2023-05-24T05:00:30.760Z,92.32
2023-05-24T05:02:03.046Z,92.22
2023-05-24T05:03:35.320Z,92.15
2023-05-24T05:05:08.028Z,91.94
2023-05-24T05:06:40.989Z,91.68
2023-05-24T05:08:14.461Z,91.26
2023-05-24T05:09:47.034Z,90.70
2023-05-24T05:11:19.619Z,90.33
2023-05-24T05:12:51.838Z,89.52
2023-05-24T05:14:24.235Z,88.90
2023-05-24T05:15:56.366Z,88.82
2023-05-24T05:17:28.481Z,88.45
2023-05-24T05:19:00.633Z,87.79
2023-05-24T05:20:32.785Z,87.46
2023-05-24T05:22:05.437Z,86.71
2023-05-24T05:23:40.040Z,86.02
2023-05-24T05:25:12.164Z,85.13
2023-05-24T05:26:44.338Z,84.90
2023-05-24T05:28:17.969Z,83.62
2023-05-24T05:29:53.271Z,83.26
2023-05-24T05:31:25.826Z,82.89
2023-05-24T05:34:34.514Z,81.71
2023-05-24T05:36:07.149Z,81.21
2023-05-24T05:37:39.333Z,80.97
2023-05-24T05:39:11.434Z,80.77
2023-05-24T05:40:43.972Z,80.73
2023-05-24T05:42:16.268Z,80.50
2023-05-24T05:43:48.511Z,79.96
2023-05-24T05:45:20.963Z,79.74
2023-05-24T05:46:53.174Z,80.22
2023-05-24T05:48:26.258Z,80.22
2023-05-24T05:49:58.391Z,80.08
2023-05-24T05:51:30.819Z,81.17
2023-05-24T05:53:03.019Z,81.23
2023-05-24T05:54:35.373Z,81.29
2023-05-24T05:56:07.727Z,80.79
2023-05-24T05:57:39.849Z,81.11
2023-05-24T05:59:12.722Z,81.18
2023-05-24T06:00:44.961Z,81.44
2023-05-24T06:02:19.284Z,80.52
2023-05-24T06:03:52.523Z,79.96
2023-05-24T06:05:24.757Z,79.04
2023-05-24T06:06:57.441Z,78.40
2023-05-24T06:08:31.310Z,78.46
2023-05-24T06:10:03.986Z,78.49
2023-05-24T06:11:36.211Z,78.22
2023-05-24T06:13:08.524Z,78.16
2023-05-24T06:14:41.009Z,77.77
2023-05-24T06:16:13.311Z,77.06
2023-05-24T06:17:48.432Z,77.42
2023-05-24T06:19:21.464Z,76.58
2023-05-24T06:20:53.679Z,76.47
2023-05-24T06:22:25.843Z,76.03
2023-05-24T06:23:58.654Z,76.57
2023-05-24T06:25:31.430Z,76.71
2023-05-24T06:27:05.409Z,76.32
2023-05-24T06:28:38.067Z,77.39
2023-05-24T06:30:10.719Z,77.44
2023-05-24T06:31:43.966Z,77.25
2023-05-24T06:35:15.763Z,76.97
2023-05-24T06:36:49.003Z,76.27
2023-05-24T06:38:21.364Z,75.99
2023-05-24T06:39:53.513Z,75.67
2023-05-24T06:41:25.628Z,75.57
2023-05-24T06:42:59.249Z,74.21
2023-05-24T06:44:34.791Z,73.51
2023-05-24T06:46:07.954Z,71.67
2023-05-24T06:47:40.298Z,71.84
2023-05-24T06:49:13.472Z,71.57
2023-05-24T06:50:46.376Z,71.47
2023-05-24T06:52:22.337Z,70.83
2023-05-24T06:53:54.580Z,70.81
2023-05-24T06:55:27.084Z,70.20
2023-05-24T06:56:59.449Z,69.78
2023-05-24T07:03:38.106Z,66.55
2023-05-24T07:05:13.650Z,68.19
2023-05-24T07:06:46.410Z,68.64
2023-05-24T07:08:18.817Z,66.74
2023-05-24T07:09:51.311Z,63.90
2023-05-24T07:11:23.614Z,61.36
2023-05-24T07:12:56.129Z,63.46
2023-05-24T07:14:28.651Z,64.04
2023-05-24T07:16:01.007Z,62.38
2023-05-24T07:17:33.461Z,63.13
2023-05-24T07:21:06.021Z,62.03
2023-05-24T07:22:38.313Z,60.34
2023-05-24T07:24:10.639Z,60.99
2023-05-24T07:25:42.989Z,61.49
2023-05-24T07:27:15.201Z,60.98
2023-05-24T07:28:47.560Z,60.53
2023-05-24T07:30:31.000Z,60.68
2023-05-24T07:32:04.554Z,55.83
2023-05-24T07:33:38.295Z,58.24
2023-05-24T07:35:13.499Z,59.84
2023-05-24T07:36:50.912Z,61.38
2023-05-24T07:38:23.308Z,61.91
2023-05-24T07:43:13.461Z,56.81
2023-05-24T07:44:45.634Z,57.06
2023-05-24T07:46:17.919Z,58.26
2023-05-24T07:51:16.041Z,52.46
2023-05-24T07:52:48.827Z,53.41
2023-05-24T07:54:21.979Z,53.55
2023-05-24T07:55:54.249Z,53.34
2023-05-24T07:57:26.487Z,54.39
2023-05-24T07:59:04.759Z,53.68
2023-05-24T08:00:37.268Z,52.43
2023-05-24T08:02:12.083Z,53.11
2023-05-24T08:03:44.529Z,53.73
2023-05-24T08:05:17.316Z,54.56
2023-05-24T08:06:49.610Z,54.28
2023-05-24T08:08:22.025Z,48.54
2023-05-24T08:09:54.342Z,50.53
2023-05-24T08:11:27.068Z,48.23
2023-05-24T08:12:59.419Z,50.27
2023-05-24T08:16:08.751Z,51.38
2023-05-24T08:17:41.367Z,50.53
2023-05-24T08:19:14.938Z,47.79
2023-05-24T08:20:47.248Z,47.68
2023-05-24T08:22:20.282Z,48.22
2023-05-24T08:23:52.643Z,48.61
2023-05-24T08:25:24.935Z,49.48
2023-05-24T08:26:57.454Z,48.52
2023-05-24T08:28:30.031Z,49.48
2023-05-24T08:30:02.702Z,49.51
2023-05-24T08:31:35.006Z,50.91
2023-05-24T08:33:07.776Z,50.10
2023-05-24T08:34:40.055Z,46.95
2023-05-24T08:36:12.626Z,47.47
2023-05-24T08:37:44.897Z,47.48
2023-05-24T08:39:17.255Z,48.09
2023-05-24T08:40:49.490Z,49.38
2023-05-24T08:42:22.258Z,49.94
2023-05-24T08:43:54.696Z,50.64
2023-05-24T08:45:27.235Z,50.53
2023-05-24T08:46:59.628Z,51.79
2023-05-24T08:48:32.433Z,51.27
2023-05-24T08:50:06.631Z,48.97
2023-05-24T08:51:40.283Z,49.99
2023-05-24T08:53:13.360Z,50.80
2023-05-24T08:54:46.486Z,48.98
2023-05-24T08:56:19.297Z,48.52
2023-05-24T08:57:51.969Z,48.20
2023-05-24T08:59:26.001Z,50.89
2023-05-24T09:00:59.551Z,49.56
2023-05-24T09:02:32.371Z,46.31
2023-05-24T09:04:05.604Z,47.50
2023-05-24T09:05:38.035Z,45.87
2023-05-24T09:07:11.161Z,47.72
2023-05-24T09:08:44.166Z,45.58
2023-05-24T09:10:16.734Z,46.66
2023-05-24T09:11:51.129Z,45.02
2023-05-24T09:13:25.320Z,43.84
2023-05-24T09:14:58.138Z,48.55
2023-05-24T09:16:30.432Z,48.35
2023-05-24T09:18:02.770Z,50.77
2023-05-24T09:19:35.586Z,48.89
2023-05-24T09:21:09.160Z,48.29
2023-05-24T09:22:44.494Z,47.65
2023-05-24T09:24:19.289Z,48.99
2023-05-24T09:25:51.762Z,47.84
2023-05-24T09:27:24.483Z,48.24
2023-05-24T09:28:58.491Z,50.63
2023-05-24T09:30:30.853Z,51.73
2023-05-24T09:32:05.112Z,44.84
2023-05-24T09:33:37.486Z,46.37
2023-05-24T09:35:11.023Z,46.89
2023-05-24T09:36:45.956Z,47.83
2023-05-24T09:39:52.372Z,46.92
2023-05-24T09:41:24.697Z,45.35
2023-05-24T09:43:07.751Z,45.00
2023-05-24T09:44:40.039Z,47.84
2023-05-24T09:46:17.435Z,48.02
2023-05-24T09:47:50.396Z,48.09
2023-05-24T09:49:23.741Z,48.07
2023-05-24T10:00:57.266Z,48.29
2023-05-24T10:10:19.848Z,45.86
2023-05-24T10:11:52.746Z,46.50
2023-05-24T10:13:24.925Z,44.40
2023-05-24T10:14:58.089Z,47.77
2023-05-24T10:16:30.364Z,45.11
2023-05-24T10:18:11.269Z,42.90
2023-05-24T10:19:45.447Z,42.90
2023-05-24T10:21:18.421Z,42.39
2023-05-24T10:23:00.786Z,45.47
2023-05-24T10:24:40.659Z,43.84
2023-05-24T10:26:13.322Z,42.79
2023-05-24T10:27:46.462Z,41.08
2023-05-24T10:29:22.846Z,45.16
2023-05-24T10:31:16.479Z,45.92
2023-05-24T10:32:49.631Z,40.23
2023-05-24T10:34:21.700Z,39.10
2023-05-24T10:35:54.675Z,39.10
2023-05-24T10:37:27.510Z,43.00
2023-05-24T10:39:00.414Z,45.20
2023-05-24T10:40:32.660Z,45.05
2023-05-24T10:42:09.574Z,45.57
2023-05-24T10:44:00.639Z,45.75
2023-05-24T10:45:41.187Z,44.47
2023-05-24T10:47:15.910Z,42.69
2023-05-24T10:49:01.624Z,43.01
2023-05-24T10:50:33.971Z,45.21
2023-05-24T10:52:10.318Z,47.48
2023-05-24T10:53:42.577Z,45.88
2023-05-24T10:55:15.607Z,44.39
2023-05-24T10:56:49.924Z,42.34
2023-05-24T10:58:27.588Z,39.46
2023-05-24T11:05:46.564Z,39.73
2023-05-24T11:07:19.989Z,39.31
2023-05-24T11:08:51.932Z,41.34
2023-05-24T11:10:31.347Z,40.53
2023-05-24T11:12:08.218Z,40.93
2023-05-24T11:33:02.907Z,42.53
2023-05-24T11:34:35.650Z,44.18
2023-05-24T11:36:08.273Z,46.02
2023-05-24T11:39:18.565Z,45.61
2023-05-24T11:48:10.348Z,41.90
2023-05-24T11:51:15.542Z,40.62
2023-05-24T11:52:47.713Z,41.61
2023-05-24T11:54:20.009Z,40.75
2023-05-24T11:55:54.848Z,42.12
2023-05-24T11:57:48.789Z,41.28
2023-05-24T11:59:25.090Z,40.02
2023-05-24T12:00:57.404Z,42.45
2023-05-24T12:02:32.839Z,42.02
2023-05-24T12:04:07.927Z,41.77
2023-05-24T12:05:40.544Z,41.71
2023-05-24T12:07:16.222Z,42.37
2023-05-24T12:08:49.265Z,41.54
2023-05-24T12:10:22.986Z,40.33
2023-05-24T12:11:55.988Z,43.24
2023-05-24T12:13:28.329Z,41.27
2023-05-24T12:15:00.619Z,42.27
2023-05-24T12:16:33.852Z,41.53
2023-05-24T12:18:06.258Z,40.57
2023-05-24T12:19:38.705Z,41.69
2023-05-24T12:21:12.316Z,42.37
2023-05-24T12:22:53.174Z,42.63
2023-05-24T12:24:26.604Z,41.25
2023-05-24T12:26:02.396Z,42.36
2023-05-24T12:27:35.900Z,44.13
2023-05-24T12:29:08.489Z,43.92
2023-05-24T12:30:45.403Z,43.01
2023-05-24T12:32:17.896Z,40.13
2023-05-24T12:33:51.589Z,43.37
2023-05-24T12:35:25.813Z,44.66
2023-05-24T12:36:58.372Z,42.53
2023-05-24T12:38:32.031Z,39.80
2023-05-24T12:40:05.828Z,43.16
2023-05-24T12:41:38.141Z,44.65
2023-05-24T12:43:11.101Z,42.51
2023-05-24T12:44:43.380Z,40.70
2023-05-24T12:46:15.747Z,42.73
2023-05-24T12:47:48.641Z,42.13
2023-05-24T12:49:21.214Z,43.87
2023-05-24T12:50:53.436Z,43.60
2023-05-24T12:52:26.868Z,40.13
2023-05-24T12:53:59.273Z,40.71
2023-05-24T12:55:31.907Z,41.51
2023-05-24T12:57:04.273Z,40.91
2023-05-24T12:58:36.462Z,39.90
2023-05-24T13:00:11.218Z,40.04
2023-05-24T13:01:43.744Z,40.12
2023-05-24T13:03:16.108Z,40.23
2023-05-24T13:04:48.695Z,40.70
2023-05-24T13:06:21.116Z,42.42
2023-05-24T13:07:53.530Z,40.40
2023-05-24T13:09:26.474Z,41.31
2023-05-24T13:10:58.784Z,40.52
2023-05-24T13:12:31.086Z,41.63
2023-05-24T13:14:04.074Z,42.37
2023-05-24T13:15:36.646Z,39.23
2023-05-24T13:17:08.917Z,40.24
2023-05-24T13:18:41.257Z,38.15
2023-05-24T13:20:13.510Z,41.10
2023-05-24T13:21:45.834Z,43.64
2023-05-24T13:23:18.685Z,42.57
2023-05-24T13:24:50.880Z,42.89
2023-05-24T13:26:23.616Z,40.74
2023-05-24T13:27:55.897Z,38.14
2023-05-24T13:29:39.288Z,39.08
2023-05-24T13:31:12.075Z,39.05
2023-05-24T13:32:44.539Z,38.82
2023-05-24T13:34:18.043Z,38.80
2023-05-24T13:35:50.280Z,41.15
2023-05-24T13:37:22.765Z,41.02
2023-05-24T13:39:06.478Z,40.87
2023-05-24T13:40:46.569Z,42.78
2023-05-24T13:42:18.901Z,41.64
2023-05-24T13:43:54.667Z,41.98
2023-05-24T13:45:27.491Z,41.41
2023-05-24T13:46:59.638Z,42.68
2023-05-24T13:48:31.974Z,41.99
2023-05-24T13:50:05.314Z,42.85
2023-05-24T13:51:38.374Z,41.30
2023-05-24T13:53:10.382Z,37.75
2023-05-24T13:54:42.815Z,36.27
2023-05-24T13:56:16.187Z,38.01
2023-05-24T13:57:52.166Z,37.80
2023-05-24T13:59:25.111Z,36.77
2023-05-24T14:00:57.644Z,36.40
2023-05-24T14:02:29.787Z,38.81
2023-05-24T14:04:02.829Z,38.37
2023-05-24T14:05:35.202Z,39.39
2023-05-24T14:07:08.952Z,38.82
2023-05-24T14:08:41.164Z,41.33
2023-05-24T14:10:13.611Z,41.34
2023-05-24T14:11:45.954Z,40.42
2023-05-24T14:14:59.697Z,37.93
2023-05-24T14:16:32.511Z,39.10
2023-05-24T14:18:08.749Z,38.49
2023-05-24T14:19:41.303Z,37.58
2023-05-24T14:21:13.450Z,38.60
2023-05-24T14:22:45.930Z,38.71
2023-05-24T14:24:18.151Z,38.66
2023-05-24T14:25:52.401Z,40.87
2023-05-24T14:27:24.834Z,39.84
2023-05-24T14:28:57.209Z,41.02
2023-05-24T14:30:31.174Z,41.19
2023-05-24T14:32:06.262Z,40.74
2023-05-24T14:33:38.916Z,40.94
2023-05-24T14:35:11.081Z,36.80
2023-05-24T14:36:43.329Z,41.16
2023-05-24T14:38:15.801Z,40.60
2023-05-24T14:39:47.956Z,41.98
2023-05-24T14:41:20.143Z,40.51
2023-05-24T14:42:52.446Z,40.54
2023-05-24T14:44:24.840Z,39.59
2023-05-24T14:45:57.397Z,41.01
2023-05-24T14:47:29.582Z,40.93
2023-05-24T14:49:02.974Z,41.04
2023-05-24T14:50:35.194Z,40.12
2023-05-24T14:52:07.551Z,40.76
2023-05-24T14:53:39.946Z,38.11
2023-05-24T14:55:12.216Z,38.41
2023-05-24T14:56:44.416Z,39.31
2023-05-24T14:58:16.727Z,41.56
2023-05-24T14:59:49.055Z,41.20
2023-05-24T15:01:21.257Z,41.90
2023-05-24T15:02:53.607Z,40.13
2023-05-24T15:04:26.581Z,40.88
2023-05-24T15:05:59.353Z,40.57
2023-05-24T15:07:32.227Z,41.33
2023-05-24T15:09:05.062Z,41.96
2023-05-24T15:10:39.521Z,41.60
2023-05-24T15:12:11.756Z,41.18
2023-05-24T15:13:43.957Z,40.96
2023-05-24T15:15:16.260Z,41.51
2023-05-24T15:16:49.314Z,41.66
2023-05-24T15:18:21.401Z,42.02
2023-05-24T15:19:54.613Z,42.66
2023-05-24T15:21:26.662Z,45.07
2023-05-24T15:22:58.873Z,45.55
2023-05-24T15:24:31.101Z,44.90
2023-05-24T15:26:03.489Z,45.50
2023-05-24T15:27:35.779Z,46.18
2023-05-24T15:29:07.907Z,45.97
2023-05-24T15:30:40.167Z,45.40
2023-05-24T15:32:12.404Z,45.38
2023-05-24T15:33:44.638Z,45.32
2023-05-24T15:35:17.708Z,45.84
2023-05-24T15:36:49.840Z,46.43
2023-05-24T15:38:25.578Z,46.84
2023-05-24T15:39:57.778Z,46.77
2023-05-24T15:41:30.071Z,47.21
2023-05-24T15:43:02.554Z,47.92
2023-05-24T15:44:34.730Z,47.84
2023-05-24T15:46:07.183Z,47.63
2023-05-24T15:47:40.692Z,48.65
2023-05-24T15:49:12.878Z,47.76
2023-05-24T15:51:13.816Z,48.19
2023-05-24T15:52:37.572Z,47.90
2023-05-24T15:54:09.744Z,48.13
2023-05-24T15:55:42.007Z,48.67
2023-05-24T15:57:14.214Z,48.99
2023-05-24T15:58:46.774Z,48.77
2023-05-24T16:00:19.163Z,48.34
2023-05-24T16:01:51.953Z,49.44
2023-05-24T16:03:24.486Z,48.81
2023-05-24T16:04:57.796Z,48.94
2023-05-24T16:06:30.017Z,49.20
2023-05-24T16:08:03.042Z,49.85
2023-05-24T16:09:35.304Z,50.03
2023-05-24T16:11:08.818Z,48.47
2023-05-24T16:12:41.073Z,49.29
2023-05-24T16:14:13.288Z,49.67
2023-05-24T16:15:51.974Z,47.55
2023-05-24T16:17:24.159Z,48.74
2023-05-24T16:18:56.383Z,49.75
2023-05-24T16:20:28.605Z,51.52
2023-05-24T16:22:00.960Z,51.17
2023-05-24T16:23:33.335Z,49.63
2023-05-24T16:25:06.173Z,47.29
2023-05-24T16:26:38.381Z,48.36
2023-05-24T16:28:10.642Z,49.22
2023-05-24T16:29:43.308Z,49.35
2023-05-24T16:31:16.526Z,50.01
2023-05-24T16:32:48.817Z,47.90
2023-05-24T16:34:22.050Z,48.22
2023-05-24T16:36:02.122Z,47.06
2023-05-24T16:37:35.675Z,44.90
2023-05-24T16:39:07.991Z,45.90
2023-05-24T16:40:42.301Z,45.77
2023-05-24T16:42:14.676Z,45.18
2023-05-24T16:43:47.185Z,44.11
2023-05-24T16:45:19.951Z,43.61
2023-05-24T16:48:28.982Z,43.23
2023-05-24T16:50:01.446Z,43.00
2023-05-24T16:51:33.673Z,44.03
2023-05-24T16:53:06.699Z,44.56
2023-05-24T16:54:39.045Z,47.58
2023-05-24T16:56:11.231Z,50.90
2023-05-24T16:57:43.569Z,52.65
2023-05-24T16:59:17.456Z,53.10
2023-05-24T17:00:49.806Z,52.65
2023-05-24T17:02:22.055Z,53.64
2023-05-24T17:03:54.376Z,53.03
2023-05-24T17:05:26.660Z,54.67
2023-05-24T17:06:58.848Z,54.37
2023-05-24T17:08:33.606Z,55.90
2023-05-24T17:10:06.611Z,55.62
2023-05-24T17:11:38.836Z,56.38
2023-05-24T17:13:11.006Z,56.73
2023-05-24T17:14:43.557Z,57.01
2023-05-24T17:16:16.019Z,56.94
2023-05-24T17:17:48.768Z,56.07
2023-05-24T17:19:21.404Z,55.55
2023-05-24T17:21:04.133Z,55.14
2023-05-24T17:22:36.323Z,55.58
2023-05-24T17:24:08.611Z,56.05
2023-05-24T17:25:41.330Z,57.46
2023-05-24T17:27:13.595Z,57.79
2023-05-24T17:28:46.489Z,57.42
2023-05-24T17:30:20.321Z,58.33
2023-05-24T17:31:52.700Z,59.05
2023-05-24T17:33:26.707Z,59.50
2023-05-24T17:34:58.958Z,59.94
2023-05-24T17:36:34.053Z,59.73
2023-05-24T17:38:06.201Z,59.79
2023-05-24T17:39:39.347Z,60.64
2023-05-24T17:41:11.403Z,62.12
2023-05-24T17:42:43.713Z,61.73
2023-05-24T17:44:15.935Z,62.65
2023-05-24T17:45:48.229Z,62.50
2023-05-24T17:47:20.917Z,62.94
2023-05-24T17:48:53.281Z,64.48
2023-05-24T17:50:25.679Z,64.40
2023-05-24T17:52:00.837Z,64.56
2023-05-24T17:53:35.473Z,64.84
2023-05-24T17:55:08.866Z,65.82
2023-05-24T17:56:41.045Z,66.03
2023-05-24T17:58:13.243Z,66.36
2023-05-24T17:59:45.379Z,67.09
2023-05-24T18:01:17.994Z,67.86
2023-05-24T18:02:50.308Z,67.20
2023-05-24T18:04:22.549Z,68.52
2023-05-24T18:05:54.790Z,69.42
2023-05-24T18:07:28.830Z,70.27
2023-05-24T18:09:01.343Z,70.69
2023-05-24T18:10:33.617Z,70.68
2023-05-24T18:12:06.169Z,70.80
2023-05-24T18:13:39.645Z,71.57
2023-05-24T18:15:12.078Z,70.65
2023-05-24T18:22:11.135Z,70.06
2023-05-24T18:23:46.439Z,70.87
2023-05-24T18:25:18.710Z,71.52
2023-05-24T18:26:50.882Z,72.09
2023-05-24T18:28:23.140Z,71.72
2023-05-24T18:29:55.346Z,71.03
2023-05-24T18:31:27.544Z,70.62
2023-05-24T18:34:34.942Z,69.62
2023-05-24T18:36:07.512Z,69.26
2023-05-24T18:37:39.723Z,69.42
2023-05-24T18:39:11.944Z,69.84
2023-05-24T18:40:44.309Z,70.29
2023-05-24T18:42:16.644Z,70.30
2023-05-24T18:43:51.116Z,70.38
2023-05-24T18:45:23.485Z,69.79
2023-05-24T18:46:57.002Z,69.91
2023-05-24T18:48:29.381Z,71.03
2023-05-24T18:50:01.594Z,71.76
2023-05-24T18:51:33.916Z,72.54
2023-05-24T18:53:06.326Z,72.83
2023-05-24T18:54:38.726Z,73.90
2023-05-24T18:56:11.011Z,74.21
2023-05-24T18:57:43.240Z,74.69
2023-05-24T18:59:17.129Z,75.21
2023-05-24T19:00:50.960Z,75.55
2023-05-24T19:02:23.222Z,75.99
2023-05-24T19:03:55.448Z,76.00
2023-05-24T19:05:27.661Z,76.04
2023-05-24T19:06:59.915Z,76.29
2023-05-24T19:08:32.235Z,76.63
2023-05-24T19:10:05.125Z,76.93
2023-05-24T19:11:37.517Z,77.36
2023-05-24T19:13:09.774Z,77.57
2023-05-24T19:14:42.070Z,77.90
2023-05-24T19:16:17.990Z,78.40
2023-05-24T19:17:50.345Z,78.62
2023-05-24T19:19:22.714Z,78.63
2023-05-24T19:20:54.914Z,78.52
2023-05-24T19:22:28.141Z,78.44
2023-05-24T19:24:00.480Z,78.66
2023-05-24T19:25:32.806Z,78.91
2023-05-24T19:27:05.105Z,78.78
2023-05-24T19:28:40.698Z,79.36
2023-05-24T19:30:15.213Z,79.24
2023-05-24T19:31:49.422Z,79.46
2023-05-24T19:33:21.687Z,79.67
2023-05-24T19:34:53.850Z,79.63
2023-05-24T19:36:26.053Z,80.01
2023-05-24T19:37:58.266Z,79.81
2023-05-24T19:39:30.531Z,80.04
2023-05-24T19:41:02.674Z,80.19
2023-05-24T19:42:35.546Z,80.57
2023-05-24T19:44:07.724Z,80.57
2023-05-24T19:45:39.884Z,80.74
2023-05-24T19:47:12.028Z,80.52
2023-05-24T19:48:44.464Z,80.77
2023-05-24T19:50:17.000Z,80.78
2023-05-24T19:51:49.245Z,80.97
2023-05-24T19:53:21.584Z,80.98
2023-05-24T19:56:25.739Z,80.77
2023-05-24T19:57:58.048Z,80.96
2023-05-24T19:59:30.265Z,80.41
2023-05-24T20:01:02.473Z,80.63
2023-05-24T20:02:36.546Z,80.62
2023-05-24T20:04:09.024Z,81.35
2023-05-24T20:05:41.654Z,82.08
2023-05-24T20:07:15.089Z,82.72
2023-05-24T20:08:47.171Z,82.47
2023-05-24T20:10:19.632Z,82.26
2023-05-24T20:11:51.834Z,82.46
2023-05-24T20:13:23.973Z,81.73
2023-05-24T20:14:56.032Z,81.79
2023-05-24T20:16:28.781Z,81.90
2023-05-24T20:18:01.070Z,81.37
2023-05-24T20:19:33.333Z,80.55
2023-05-24T20:21:05.460Z,80.78
2023-05-24T20:22:37.733Z,80.81
2023-05-24T20:24:09.984Z,80.74
2023-05-24T20:25:42.275Z,80.54
2023-05-24T20:27:14.564Z,79.68
2023-05-24T20:28:47.434Z,79.07
2023-05-24T20:30:19.769Z,78.11
2023-05-24T20:31:51.999Z,77.43
2023-05-24T20:33:24.280Z,77.37
2023-05-24T20:34:56.567Z,77.55
2023-05-24T20:36:28.833Z,78.17
2023-05-24T20:38:01.203Z,78.70
2023-05-24T20:39:33.886Z,79.25
2023-05-24T20:41:06.219Z,79.48
2023-05-24T20:42:38.377Z,80.26
2023-05-24T20:44:10.515Z,80.18
2023-05-24T20:45:43.223Z,79.86
2023-05-24T20:47:17.121Z,79.55
2023-05-24T20:48:49.286Z,79.83
2023-05-24T20:50:21.539Z,79.82
2023-05-24T20:51:53.796Z,79.76
2023-05-24T20:53:26.148Z,80.10
2023-05-24T20:54:58.288Z,80.11
2023-05-24T20:56:30.447Z,80.37
2023-05-24T20:58:02.634Z,80.84
2023-05-24T20:59:34.843Z,80.47
2023-05-24T21:01:08.791Z,80.34
2023-05-24T21:02:41.510Z,80.73
2023-05-24T21:04:14.570Z,81.19
2023-05-24T21:05:46.755Z,81.03
2023-05-24T21:07:18.885Z,81.00
2023-05-24T21:08:51.419Z,81.12
2023-05-24T21:10:23.806Z,81.17
2023-05-24T21:11:56.059Z,81.47
2023-05-24T21:13:28.621Z,81.42
2023-05-24T21:15:00.742Z,81.78
2023-05-24T21:16:33.316Z,81.86
2023-05-24T21:18:05.640Z,81.64
2023-05-24T21:19:37.840Z,81.75
2023-05-24T21:21:11.392Z,81.78
2023-05-24T21:22:43.553Z,81.57
2023-05-24T21:24:16.663Z,81.33
2023-05-24T21:25:48.755Z,81.05
2023-05-24T21:27:22.158Z,80.57
2023-05-24T21:28:54.471Z,80.18
2023-05-24T21:30:26.674Z,80.12
2023-05-24T21:31:58.830Z,80.20
2023-05-24T21:33:31.127Z,79.46
2023-05-24T21:35:03.412Z,79.71